Wetterdaten: Woche 20.04.09 - 26.04.09 (KW17)
Datum Zeit Temperatur Luftfeuchte Luftdruck Niederschlag Wind Richtung Sonnenschein Solar Taupunkt Windchill Windben
20.04.2009 00:00 12.2 C 79 % 1016.9 hPa 0.0 l/m 2.1 km/h (1 Bft) S-SO 0.00 h 0 W/m 8.6 C 12.2 C 3.9 km/h (1 Bft)
20.04.2009 01:00 10.9 C 83 % 1017.0 hPa 0.0 l/m 1.3 km/h (1 Bft) O 0.00 h 0 W/m 8.1 C 10.9 C 2.5 km/h (1 Bft)
20.04.2009 02:00 9.7 C 85 % 1016.9 hPa 0.0 l/m 1.2 km/h (1 Bft) O 0.00 h 0 W/m 7.3 C 9.7 C 2.2 km/h (1 Bft)
20.04.2009 03:00 8.7 C 88 % 1016.7 hPa 0.0 l/m 0.3 km/h (0 Bft) O 0.00 h 0 W/m 6.8 C 8.7 C 0.9 km/h (0 Bft)
20.04.2009 04:00 8.0 C 90 % 1016.9 hPa 0.0 l/m 0.1 km/h (0 Bft) O 0.00 h 0 W/m 6.4 C 8.0 C 0.2 km/h (0 Bft)
20.04.2009 05:00 7.5 C 90 % 1017.0 hPa 0.0 l/m 0.0 km/h (0 Bft) O 0.00 h 0 W/m 6.0 C 7.5 C 0.4 km/h (0 Bft)
20.04.2009 06:00 7.4 C 93 % 1017.3 hPa 0.0 l/m 0.1 km/h (0 Bft) O 0.02 h 15 W/m 6.3 C 7.4 C 0.6 km/h (0 Bft)
20.04.2009 07:00 7.8 C 94 % 1017.9 hPa 0.0 l/m 0.1 km/h (0 Bft) O 0.07 h 73 W/m 6.8 C 7.8 C 0.6 km/h (0 Bft)
20.04.2009 08:00 9.9 C 94 % 1017.9 hPa 0.0 l/m 1.0 km/h (0 Bft) N-NO 0.82 h 234 W/m 9.0 C 9.9 C 2.5 km/h (1 Bft)
20.04.2009 09:00 13.5 C 72 % 1017.4 hPa 0.0 l/m 2.4 km/h (1 Bft) N-NO 0.67 h 361 W/m 8.5 C 13.5 C 5.6 km/h (1 Bft)
20.04.2009 10:00 15.8 C 60 % 1017.2 hPa 0.0 l/m 3.6 km/h (1 Bft) NO 0.83 h 538 W/m 8.1 C 15.8 C 7.5 km/h (2 Bft)
20.04.2009 11:00 15.7 C 59 % 1017.4 hPa 0.0 l/m 5.2 km/h (1 Bft) O-SO 0.22 h 382 W/m 7.8 C 15.7 C 9.7 km/h (2 Bft)
20.04.2009 12:00 17.8 C 54 % 1016.9 hPa 0.0 l/m 5.1 km/h (1 Bft) SO 0.83 h 695 W/m 8.4 C 17.8 C 10.0 km/h (2 Bft)
20.04.2009 13:00 18.7 C 53 % 1016.6 hPa 0.0 l/m 5.7 km/h (1 Bft) O-SO 1.00 h 814 W/m 8.9 C 18.7 C 10.2 km/h (2 Bft)
20.04.2009 14:00 20.0 C 49 % 1016.3 hPa 0.0 l/m 8.4 km/h (2 Bft) O-SO 1.00 h 772 W/m 9.0 C 20.0 C 14.1 km/h (3 Bft)
20.04.2009 15:00 20.5 C 46 % 1015.9 hPa 0.0 l/m 9.6 km/h (2 Bft) O-SO 1.00 h 668 W/m 8.5 C 20.5 C 15.7 km/h (3 Bft)
20.04.2009 16:00 20.6 C 46 % 1015.7 hPa 0.0 l/m 7.5 km/h (2 Bft) O-SO 0.80 h 471 W/m 8.6 C 20.6 C 12.3 km/h (3 Bft)
20.04.2009 17:00 20.6 C 44 % 1015.4 hPa 0.0 l/m 5.3 km/h (1 Bft) O-SO 0.60 h 290 W/m 8.0 C 20.6 C 10.1 km/h (2 Bft)
20.04.2009 18:00 19.8 C 47 % 1015.4 hPa 0.0 l/m 3.4 km/h (1 Bft) O-SO 0.13 h 84 W/m 8.1 C 19.8 C 7.2 km/h (2 Bft)
20.04.2009 19:00 18.6 C 52 % 1015.8 hPa 0.0 l/m 5.7 km/h (1 Bft) N 0.23 h 55 W/m 8.7 C 18.6 C 10.4 km/h (2 Bft)
20.04.2009 20:00 17.6 C 56 % 1016.1 hPa 0.0 l/m 5.2 km/h (1 Bft) N-NO 0.02 h 9 W/m 8.8 C 17.6 C 10.0 km/h (2 Bft)
20.04.2009 21:00 16.7 C 58 % 1016.5 hPa 0.0 l/m 4.3 km/h (1 Bft) N-NO 0.00 h 0 W/m 8.5 C 16.7 C 9.1 km/h (2 Bft)
20.04.2009 22:00 16.3 C 60 % 1016.7 hPa 0.0 l/m 5.1 km/h (1 Bft) N 0.00 h 0 W/m 8.6 C 16.3 C 10.2 km/h (2 Bft)
20.04.2009 23:00 15.8 C 63 % 1016.9 hPa 0.0 l/m 4.8 km/h (1 Bft) N-NO 0.00 h 0 W/m 8.9 C 15.8 C 9.3 km/h (2 Bft)
21.04.2009 00:00 15.1 C 68 % 1016.8 hPa 0.0 l/m 5.1 km/h (1 Bft) N-NO 0.00 h 0 W/m 9.2 C 15.1 C 10.6 km/h (2 Bft)
21.04.2009 01:00 13.8 C 73 % 1017.0 hPa 0.0 l/m 0.5 km/h (0 Bft) N 0.00 h 0 W/m 9.0 C 13.8 C 1.8 km/h (1 Bft)
21.04.2009 02:00 12.1 C 79 % 1016.9 hPa 0.0 l/m 0.3 km/h (0 Bft) SO 0.00 h 0 W/m 8.7 C 12.1 C 1.0 km/h (0 Bft)
21.04.2009 03:00 11.2 C 85 % 1016.7 hPa 0.0 l/m 0.1 km/h (0 Bft) SO 0.00 h 0 W/m 8.7 C 11.2 C 0.6 km/h (0 Bft)
21.04.2009 04:00 10.9 C 87 % 1016.7 hPa 0.0 l/m 0.1 km/h (0 Bft) SO 0.00 h 0 W/m 8.9 C 10.9 C 1.0 km/h (0 Bft)
21.04.2009 05:00 10.4 C 88 % 1017.1 hPa 0.0 l/m 0.1 km/h (0 Bft) SO 0.00 h 0 W/m 8.4 C 10.4 C 0.4 km/h (0 Bft)
21.04.2009 06:00 9.7 C 90 % 1017.5 hPa 0.0 l/m 0.0 km/h (0 Bft) SO 0.13 h 17 W/m 8.2 C 9.7 C 0.1 km/h (0 Bft)
21.04.2009 07:00 9.4 C 92 % 1018.0 hPa 0.0 l/m 0.0 km/h (0 Bft) SO 0.02 h 64 W/m 8.2 C 9.4 C 0.5 km/h (0 Bft)
21.04.2009 08:00 11.0 C 93 % 1018.3 hPa 0.0 l/m 1.0 km/h (0 Bft) N-NW 0.35 h 169 W/m 9.9 C 11.0 C 2.7 km/h (1 Bft)
21.04.2009 09:00 13.2 C 83 % 1018.4 hPa 0.0 l/m 1.5 km/h (1 Bft) N-NW 0.58 h 349 W/m 10.3 C 13.2 C 3.4 km/h (1 Bft)
21.04.2009 10:00 15.8 C 70 % 1018.2 hPa 0.0 l/m 3.7 km/h (1 Bft) N-NW 1.00 h 584 W/m 10.2 C 15.8 C 6.1 km/h (2 Bft)
21.04.2009 11:00 17.8 C 61 % 1017.5 hPa 0.0 l/m 3.0 km/h (1 Bft) N-NW 1.00 h 684 W/m 10.2 C 17.8 C 5.6 km/h (1 Bft)
21.04.2009 12:00 19.6 C 56 % 1017.0 hPa 0.0 l/m 3.6 km/h (1 Bft) W-NW 1.00 h 767 W/m 10.7 C 19.6 C 6.9 km/h (2 Bft)
21.04.2009 13:00 21.6 C 50 % 1016.4 hPa 0.0 l/m 5.5 km/h (1 Bft) N-NW 0.70 h 701 W/m 10.6 C 21.6 C 9.3 km/h (2 Bft)
21.04.2009 14:00 21.5 C 48 % 1016.2 hPa 0.0 l/m 3.0 km/h (1 Bft) W-NW 0.48 h 554 W/m 10.0 C 21.5 C 6.0 km/h (2 Bft)
21.04.2009 15:00 20.7 C 54 % 1015.9 hPa 0.0 l/m 5.8 km/h (2 Bft) W-NW 0.05 h 165 W/m 11.0 C 20.7 C 9.3 km/h (2 Bft)
21.04.2009 16:00 18.6 C 65 % 1016.3 hPa 0.2 l/m 6.6 km/h (2 Bft) N-NW 0.25 h 269 W/m 11.8 C 18.6 C 10.5 km/h (2 Bft)
21.04.2009 17:00 20.0 C 53 % 1015.9 hPa 0.0 l/m 12.1 km/h (2 Bft) N-NW 0.77 h 398 W/m 10.1 C 20.0 C 18.3 km/h (3 Bft)
21.04.2009 18:00 18.9 C 53 % 1016.2 hPa 0.0 l/m 9.1 km/h (2 Bft) N-NW 0.03 h 103 W/m 9.0 C 18.9 C 14.7 km/h (3 Bft)
21.04.2009 19:00 17.3 C 57 % 1017.0 hPa 0.0 l/m 5.7 km/h (1 Bft) N-NW 0.00 h 23 W/m 8.6 C 17.3 C 9.5 km/h (2 Bft)
21.04.2009 20:00 16.4 C 59 % 1017.8 hPa 0.0 l/m 3.7 km/h (1 Bft) N 0.00 h 7 W/m 8.4 C 16.4 C 6.4 km/h (2 Bft)
21.04.2009 21:00 15.9 C 59 % 1018.3 hPa 0.0 l/m 3.2 km/h (1 Bft) N 0.00 h 0 W/m 7.9 C 15.9 C 6.6 km/h (2 Bft)
21.04.2009 22:00 15.5 C 61 % 1018.6 hPa 0.0 l/m 1.8 km/h (1 Bft) NO 0.00 h 0 W/m 8.0 C 15.5 C 4.5 km/h (1 Bft)
21.04.2009 23:00 14.5 C 66 % 1018.7 hPa 0.0 l/m 2.9 km/h (1 Bft) O 0.00 h 0 W/m 8.2 C 14.5 C 5.0 km/h (1 Bft)
22.04.2009 00:00 12.6 C 75 % 1018.7 hPa 0.0 l/m 1.8 km/h (1 Bft) O-SO 0.00 h 0 W/m 8.2 C 12.6 C 3.2 km/h (1 Bft)
22.04.2009 01:00 11.7 C 79 % 1018.7 hPa 0.0 l/m 0.0 km/h (0 Bft) O-SO 0.00 h 0 W/m 8.2 C 11.7 C 0.4 km/h (0 Bft)
22.04.2009 02:00 10.8 C 83 % 1018.7 hPa 0.0 l/m 1.5 km/h (1 Bft) O 0.00 h 0 W/m 8.0 C 10.8 C 2.7 km/h (1 Bft)
22.04.2009 03:00 9.8 C 87 % 1019.0 hPa 0.0 l/m 1.4 km/h (1 Bft) O-SO 0.00 h 0 W/m 7.8 C 9.8 C 2.5 km/h (1 Bft)
22.04.2009 04:00 9.1 C 89 % 1019.4 hPa 0.0 l/m 1.2 km/h (1 Bft) O-SO 0.00 h 0 W/m 7.4 C 9.1 C 1.9 km/h (1 Bft)
22.04.2009 05:00 9.0 C 92 % 1019.4 hPa 0.0 l/m 1.4 km/h (1 Bft) O-SO 0.00 h 0 W/m 7.7 C 9.0 C 2.1 km/h (1 Bft)
22.04.2009 06:00 8.2 C 92 % 1019.7 hPa 0.0 l/m 1.9 km/h (1 Bft) O-SO 0.00 h 13 W/m 7.0 C 8.1 C 2.7 km/h (1 Bft)
22.04.2009 07:00 8.1 C 94 % 1020.1 hPa 0.0 l/m 0.7 km/h (0 Bft) SO 0.08 h 56 W/m 7.1 C 8.0 C 1.0 km/h (0 Bft)
22.04.2009 08:00 10.4 C 95 % 1020.3 hPa 0.0 l/m 0.0 km/h (0 Bft) N 0.73 h 213 W/m 9.6 C 10.4 C 0.4 km/h (0 Bft)
22.04.2009 09:00 13.6 C 82 % 1019.9 hPa 0.0 l/m 0.6 km/h (0 Bft) SO 0.75 h 364 W/m 10.6 C 13.6 C 2.1 km/h (1 Bft)
22.04.2009 10:00 15.3 C 74 % 1019.5 hPa 0.0 l/m 0.9 km/h (0 Bft) N 0.48 h 363 W/m 10.7 C 15.3 C 2.3 km/h (1 Bft)
22.04.2009 11:00 16.9 C 70 % 1019.4 hPa 0.0 l/m 1.8 km/h (1 Bft) N 0.57 h 539 W/m 11.2 C 16.9 C 3.8 km/h (1 Bft)
22.04.2009 12:00 19.3 C 59 % 1018.7 hPa 0.0 l/m 3.8 km/h (1 Bft) NW 0.87 h 766 W/m 11.1 C 19.3 C 6.5 km/h (2 Bft)
22.04.2009 13:00 21.0 C 49 % 1018.0 hPa 0.0 l/m 4.7 km/h (1 Bft) N-NW 1.00 h 824 W/m 10.0 C 21.0 C 7.5 km/h (2 Bft)
22.04.2009 14:00 21.0 C 46 % 1017.6 hPa 0.0 l/m 10.6 km/h (2 Bft) W 0.80 h 711 W/m 9.0 C 21.0 C 16.6 km/h (3 Bft)
22.04.2009 15:00 20.6 C 43 % 1017.3 hPa 0.0 l/m 13.0 km/h (3 Bft) W 0.38 h 494 W/m 7.7 C 20.6 C 20.4 km/h (4 Bft)
22.04.2009 16:00 20.2 C 43 % 1017.2 hPa 0.0 l/m 8.2 km/h (2 Bft) W 0.18 h 262 W/m 7.1 C 20.2 C 12.6 km/h (3 Bft)
22.04.2009 17:00 20.8 C 41 % 1016.8 hPa 0.0 l/m 6.7 km/h (2 Bft) N-NW 0.57 h 281 W/m 7.2 C 20.8 C 10.6 km/h (2 Bft)
22.04.2009 18:00 20.1 C 39 % 1017.1 hPa 0.0 l/m 7.9 km/h (2 Bft) N-NW 0.63 h 194 W/m 5.6 C 20.1 C 12.8 km/h (3 Bft)
22.04.2009 19:00 18.4 C 42 % 1017.8 hPa 0.0 l/m 8.3 km/h (2 Bft) N-NW 0.00 h 59 W/m 5.1 C 18.4 C 12.7 km/h (3 Bft)
22.04.2009 20:00 16.5 C 49 % 1018.3 hPa 0.0 l/m 5.2 km/h (1 Bft) N-NW 0.00 h 11 W/m 5.8 C 16.5 C 8.6 km/h (2 Bft)
22.04.2009 21:00 14.9 C 55 % 1018.8 hPa 0.0 l/m 1.9 km/h (1 Bft) N-NW 0.00 h 0 W/m 6.0 C 14.9 C 4.1 km/h (1 Bft)
22.04.2009 22:00 14.2 C 57 % 1019.4 hPa 0.0 l/m 1.4 km/h (1 Bft) N 0.00 h 0 W/m 5.8 C 14.2 C 2.8 km/h (1 Bft)
22.04.2009 23:00 14.0 C 56 % 1019.4 hPa 0.0 l/m 4.6 km/h (1 Bft) N 0.00 h 0 W/m 5.3 C 14.0 C 7.5 km/h (2 Bft)
23.04.2009 00:00 13.4 C 58 % 1019.2 hPa 0.0 l/m 2.2 km/h (1 Bft) N 0.00 h 0 W/m 5.4 C 13.4 C 5.5 km/h (1 Bft)
23.04.2009 01:00 12.5 C 56 % 1019.4 hPa 0.0 l/m 5.3 km/h (1 Bft) NO 0.00 h 0 W/m 4.0 C 12.5 C 12.3 km/h (3 Bft)
23.04.2009 02:00 11.7 C 55 % 1019.5 hPa 0.0 l/m 4.9 km/h (1 Bft) NO 0.00 h 0 W/m 2.9 C 11.7 C 10.7 km/h (2 Bft)
23.04.2009 03:00 11.3 C 53 % 1019.6 hPa 0.0 l/m 2.7 km/h (1 Bft) NO 0.00 h 0 W/m 2.1 C 11.3 C 6.3 km/h (2 Bft)
23.04.2009 04:00 10.7 C 55 % 1019.8 hPa 0.0 l/m 0.3 km/h (0 Bft) W-SW 0.00 h 0 W/m 2.1 C 10.7 C 1.7 km/h (1 Bft)
23.04.2009 05:00 9.9 C 60 % 1019.8 hPa 0.0 l/m 0.3 km/h (0 Bft) N-NW 0.00 h 0 W/m 2.5 C 9.9 C 1.4 km/h (1 Bft)
23.04.2009 06:00 9.4 C 64 % 1020.0 hPa 0.0 l/m 0.3 km/h (0 Bft) N-NW 0.00 h 16 W/m 2.9 C 9.4 C 1.4 km/h (1 Bft)
23.04.2009 07:00 8.7 C 67 % 1020.4 hPa 0.0 l/m 0.3 km/h (0 Bft) W-SW 0.10 h 65 W/m 2.9 C 8.7 C 1.4 km/h (1 Bft)
23.04.2009 08:00 10.3 C 65 % 1020.8 hPa 0.0 l/m 0.9 km/h (0 Bft) NW 1.00 h 242 W/m 4.0 C 10.3 C 2.7 km/h (1 Bft)
23.04.2009 09:00 13.2 C 51 % 1020.4 hPa 0.0 l/m 1.8 km/h (1 Bft) N-NW 1.00 h 411 W/m 3.3 C 13.2 C 3.7 km/h (1 Bft)
23.04.2009 10:00 13.3 C 47 % 1020.3 hPa 0.0 l/m 2.0 km/h (1 Bft) N-NW 1.00 h 581 W/m 2.3 C 13.3 C 4.0 km/h (1 Bft)
23.04.2009 11:00 14.6 C 45 % 1020.1 hPa 0.0 l/m 3.6 km/h (1 Bft) N-NW 1.00 h 748 W/m 3.0 C 14.6 C 6.6 km/h (2 Bft)
23.04.2009 12:00 15.7 C 43 % 1019.8 hPa 0.0 l/m 3.9 km/h (1 Bft) W-NW 1.00 h 831 W/m 3.1 C 15.7 C 7.1 km/h (2 Bft)
23.04.2009 13:00 15.6 C 42 % 1019.1 hPa 0.0 l/m 4.7 km/h (1 Bft) W 0.43 h 516 W/m 2.9 C 15.6 C 7.7 km/h (2 Bft)
23.04.2009 14:00 16.7 C 40 % 1018.6 hPa 0.0 l/m 5.9 km/h (2 Bft) W-SW 0.65 h 654 W/m 2.9 C 16.7 C 9.8 km/h (2 Bft)
23.04.2009 15:00 17.6 C 33 % 1018.0 hPa 0.0 l/m 8.7 km/h (2 Bft) W 1.00 h 762 W/m 1.1 C 17.6 C 14.3 km/h (3 Bft)
23.04.2009 16:00 17.8 C 29 % 1017.6 hPa 0.0 l/m 8.2 km/h (2 Bft) W 0.62 h 569 W/m -0.5 C 17.8 C 13.9 km/h (3 Bft)
23.04.2009 17:00 16.0 C 38 % 1017.8 hPa 0.0 l/m 7.1 km/h (2 Bft) N-NO 0.22 h 254 W/m 1.6 C 16.0 C 14.1 km/h (3 Bft)
23.04.2009 18:00 14.5 C 44 % 1018.5 hPa 0.0 l/m 8.3 km/h (2 Bft) N-NO 0.45 h 205 W/m 2.3 C 14.5 C 16.3 km/h (3 Bft)
23.04.2009 19:00 13.0 C 45 % 1019.3 hPa 0.0 l/m 6.8 km/h (2 Bft) N-NO 0.80 h 94 W/m 1.4 C 13.0 C 14.0 km/h (3 Bft)
23.04.2009 20:00 12.0 C 45 % 1019.9 hPa 0.0 l/m 4.4 km/h (1 Bft) N-NO 0.30 h 23 W/m 0.5 C 12.0 C 9.5 km/h (2 Bft)
23.04.2009 21:00 11.0 C 49 % 1020.5 hPa 0.0 l/m 3.7 km/h (1 Bft) N-NO 0.00 h 0 W/m 0.6 C 11.0 C 8.0 km/h (2 Bft)
23.04.2009 22:00 10.4 C 52 % 1020.8 hPa 0.0 l/m 1.9 km/h (1 Bft) N-NO 0.00 h 0 W/m 1.0 C 10.4 C 4.6 km/h (1 Bft)
23.04.2009 23:00 9.7 C 56 % 1020.9 hPa 0.0 l/m 2.2 km/h (1 Bft) O-NO 0.00 h 0 W/m 1.2 C 9.6 C 5.1 km/h (1 Bft)
24.04.2009 00:00 8.3 C 61 % 1020.5 hPa 0.0 l/m 0.5 km/h (0 Bft) NO 0.00 h 0 W/m 1.3 C 8.3 C 1.9 km/h (1 Bft)
24.04.2009 01:00 6.9 C 68 % 1020.6 hPa 0.0 l/m 0.4 km/h (0 Bft) NO 0.00 h 0 W/m 1.3 C 6.9 C 1.5 km/h (1 Bft)
24.04.2009 02:00 5.7 C 73 % 1020.1 hPa 0.0 l/m 0.4 km/h (0 Bft) NO 0.00 h 0 W/m 1.3 C 5.7 C 1.7 km/h (1 Bft)
24.04.2009 03:00 4.9 C 79 % 1019.4 hPa 0.0 l/m 1.0 km/h (0 Bft) N-NO 0.00 h 0 W/m 1.7 C 4.9 C 3.3 km/h (1 Bft)
24.04.2009 04:00 4.1 C 83 % 1019.0 hPa 0.0 l/m 1.4 km/h (1 Bft) SO 0.00 h 0 W/m 1.5 C 4.1 C 3.6 km/h (1 Bft)
24.04.2009 05:00 3.5 C 86 % 1018.8 hPa 0.0 l/m 0.9 km/h (0 Bft) NO 0.00 h 0 W/m 1.4 C 3.5 C 2.8 km/h (1 Bft)
24.04.2009 06:00 3.4 C 87 % 1018.7 hPa 0.0 l/m 0.7 km/h (0 Bft) O-NO 0.00 h 10 W/m 1.5 C 3.4 C 2.0 km/h (1 Bft)
24.04.2009 07:00 3.9 C 89 % 1018.4 hPa 0.0 l/m 0.9 km/h (0 Bft) NO 0.00 h 28 W/m 2.2 C 3.9 C 3.1 km/h (1 Bft)
24.04.2009 08:00 6.2 C 82 % 1017.7 hPa 0.0 l/m 4.1 km/h (1 Bft) O 0.85 h 240 W/m 3.4 C 5.8 C 8.7 km/h (2 Bft)
24.04.2009 09:00 8.8 C 68 % 1017.3 hPa 0.0 l/m 6.5 km/h (2 Bft) O-SO 0.90 h 412 W/m 3.3 C 8.0 C 13.4 km/h (3 Bft)
24.04.2009 10:00 10.0 C 64 % 1017.0 hPa 0.0 l/m 6.0 km/h (2 Bft) NO 0.88 h 576 W/m 3.4 C 9.6 C 11.9 km/h (2 Bft)
24.04.2009 11:00 12.0 C 57 % 1016.6 hPa 0.0 l/m 5.2 km/h (1 Bft) O-SO 1.00 h 704 W/m 3.7 C 12.0 C 10.4 km/h (2 Bft)
24.04.2009 12:00 13.4 C 52 % 1015.9 hPa 0.0 l/m 7.3 km/h (2 Bft) O-SO 1.00 h 784 W/m 3.7 C 13.4 C 14.0 km/h (3 Bft)
24.04.2009 13:00 14.5 C 47 % 1015.4 hPa 0.0 l/m 11.1 km/h (2 Bft) O-SO 1.00 h 816 W/m 3.4 C 14.5 C 18.0 km/h (3 Bft)
24.04.2009 14:00 15.7 C 44 % 1014.9 hPa 0.0 l/m 9.5 km/h (2 Bft) O-SO 1.00 h 795 W/m 3.4 C 15.7 C 15.7 km/h (3 Bft)
24.04.2009 15:00 16.1 C 40 % 1014.5 hPa 0.0 l/m 6.6 km/h (2 Bft) O-SO 0.60 h 472 W/m 2.6 C 16.1 C 11.2 km/h (2 Bft)
24.04.2009 16:00 17.3 C 36 % 1014.2 hPa 0.0 l/m 2.2 km/h (1 Bft) W 0.40 h 418 W/m 2.2 C 17.3 C 4.7 km/h (1 Bft)
24.04.2009 17:00 14.4 C 51 % 1014.2 hPa 0.4 l/m 5.4 km/h (1 Bft) W-NW 0.00 h 40 W/m 4.0 C 14.4 C 9.7 km/h (2 Bft)
24.04.2009 18:00 13.2 C 60 % 1014.1 hPa 0.0 l/m 4.5 km/h (1 Bft) NW 0.58 h 196 W/m 5.5 C 13.2 C 7.8 km/h (2 Bft)
24.04.2009 19:00 13.3 C 61 % 1013.9 hPa 0.0 l/m 0.8 km/h (0 Bft) N 0.48 h 92 W/m 5.8 C 13.3 C 2.1 km/h (1 Bft)
24.04.2009 20:00 11.4 C 72 % 1014.2 hPa 0.0 l/m 2.5 km/h (1 Bft) S-SO 0.00 h 8 W/m 6.5 C 11.4 C 3.9 km/h (1 Bft)
24.04.2009 21:00 10.4 C 76 % 1013.9 hPa 0.0 l/m 3.8 km/h (1 Bft) O-SO 0.00 h 0 W/m 6.3 C 10.4 C 6.0 km/h (2 Bft)
24.04.2009 22:00 9.4 C 76 % 1013.2 hPa 0.0 l/m 1.8 km/h (1 Bft) O-SO 0.00 h 0 W/m 5.4 C 9.2 C 3.4 km/h (1 Bft)
24.04.2009 23:00 9.1 C 81 % 1013.5 hPa 0.0 l/m 1.8 km/h (1 Bft) O 0.00 h 0 W/m 6.0 C 9.1 C 3.4 km/h (1 Bft)
25.04.2009 00:00 9.3 C 81 % 1013.2 hPa 0.0 l/m 1.6 km/h (1 Bft) NO 0.00 h 0 W/m 6.2 C 9.3 C 3.4 km/h (1 Bft)
25.04.2009 01:00 9.2 C 81 % 1013.0 hPa 0.0 l/m 2.6 km/h (1 Bft) S-SO 0.00 h 0 W/m 6.0 C 9.0 C 4.5 km/h (1 Bft)
25.04.2009 02:00 9.4 C 77 % 1012.6 hPa 0.0 l/m 1.0 km/h (0 Bft) SO 0.00 h 0 W/m 5.6 C 9.4 C 2.6 km/h (1 Bft)
25.04.2009 03:00 9.3 C 76 % 1012.3 hPa 0.0 l/m 1.8 km/h (1 Bft) O-SO 0.00 h 0 W/m 5.3 C 9.2 C 3.5 km/h (1 Bft)
25.04.2009 04:00 9.3 C 77 % 1012.6 hPa 0.0 l/m 4.9 km/h (1 Bft) O-SO 0.00 h 0 W/m 5.4 C 8.7 C 7.6 km/h (2 Bft)
25.04.2009 05:00 9.0 C 79 % 1012.9 hPa 0.0 l/m 1.9 km/h (1 Bft) O-SO 0.00 h 0 W/m 5.5 C 8.9 C 3.4 km/h (1 Bft)
25.04.2009 06:00 8.5 C 83 % 1013.2 hPa 0.0 l/m 0.6 km/h (0 Bft) O-NO 0.08 h 18 W/m 5.8 C 8.4 C 1.2 km/h (1 Bft)
25.04.2009 07:00 8.6 C 87 % 1013.8 hPa 0.0 l/m 0.5 km/h (0 Bft) O-NO 0.18 h 71 W/m 6.5 C 8.6 C 1.3 km/h (1 Bft)
25.04.2009 08:00 11.0 C 78 % 1014.3 hPa 0.0 l/m 0.1 km/h (0 Bft) O-NO 0.93 h 259 W/m 7.2 C 11.0 C 0.8 km/h (0 Bft)
25.04.2009 09:00 13.1 C 68 % 1014.2 hPa 0.0 l/m 1.0 km/h (0 Bft) N-NW 1.00 h 435 W/m 7.3 C 13.1 C 2.5 km/h (1 Bft)
25.04.2009 10:00 15.1 C 58 % 1013.9 hPa 0.0 l/m 1.8 km/h (1 Bft) N-NW 1.00 h 599 W/m 7.0 C 15.1 C 3.7 km/h (1 Bft)
25.04.2009 11:00 17.3 C 47 % 1013.7 hPa 0.0 l/m 2.9 km/h (1 Bft) W-NW 1.00 h 690 W/m 5.9 C 17.3 C 5.0 km/h (1 Bft)
25.04.2009 12:00 19.1 C 43 % 1013.1 hPa 0.0 l/m 2.9 km/h (1 Bft) W-NW 1.00 h 741 W/m 6.3 C 19.1 C 5.5 km/h (1 Bft)
25.04.2009 13:00 20.9 C 36 % 1012.1 hPa 0.0 l/m 3.6 km/h (1 Bft) O-SO 1.00 h 786 W/m 5.1 C 20.9 C 6.8 km/h (2 Bft)
25.04.2009 14:00 21.8 C 28 % 1011.6 hPa 0.0 l/m 5.1 km/h (1 Bft) O-SO 1.00 h 757 W/m 2.6 C 21.8 C 8.8 km/h (2 Bft)
25.04.2009 15:00 22.6 C 26 % 1011.2 hPa 0.0 l/m 3.2 km/h (1 Bft) O-SO 1.00 h 682 W/m 2.2 C 22.6 C 6.8 km/h (2 Bft)
25.04.2009 16:00 22.5 C 26 % 1010.7 hPa 0.0 l/m 3.2 km/h (1 Bft) O-SO 1.00 h 526 W/m 1.8 C 22.5 C 5.9 km/h (2 Bft)
25.04.2009 17:00 22.4 C 27 % 1010.2 hPa 0.0 l/m 3.2 km/h (1 Bft) O-SO 1.00 h 437 W/m 2.3 C 22.4 C 6.0 km/h (2 Bft)
25.04.2009 18:00 22.1 C 26 % 1009.8 hPa 0.0 l/m 3.4 km/h (1 Bft) O-SO 1.00 h 247 W/m 1.6 C 22.1 C 6.4 km/h (2 Bft)
25.04.2009 19:00 20.8 C 25 % 1009.6 hPa 0.0 l/m 0.8 km/h (0 Bft) O 0.07 h 69 W/m 0.3 C 20.8 C 2.4 km/h (1 Bft)
25.04.2009 20:00 18.8 C 32 % 1009.3 hPa 0.0 l/m 2.3 km/h (1 Bft) O 0.00 h 13 W/m 1.5 C 18.8 C 3.4 km/h (1 Bft)
25.04.2009 21:00 15.7 C 43 % 1010.0 hPa 0.0 l/m 3.3 km/h (1 Bft) O-SO 0.00 h 0 W/m 3.2 C 15.7 C 5.0 km/h (1 Bft)
25.04.2009 22:00 13.7 C 53 % 1010.3 hPa 0.0 l/m 1.4 km/h (1 Bft) O-SO 0.00 h 0 W/m 4.3 C 13.7 C 2.5 km/h (1 Bft)
25.04.2009 23:00 11.4 C 61 % 1010.1 hPa 0.0 l/m 1.5 km/h (1 Bft) O-SO 0.00 h 0 W/m 4.1 C 11.4 C 2.7 km/h (1 Bft)
26.04.2009 00:00 10.0 C 65 % 1010.2 hPa 0.0 l/m 1.1 km/h (1 Bft) O 0.00 h 0 W/m 3.8 C 10.0 C 2.5 km/h (1 Bft)
26.04.2009 01:00 8.9 C 70 % 1010.2 hPa 0.0 l/m 2.2 km/h (1 Bft) O 0.00 h 0 W/m 3.8 C 8.8 C 3.6 km/h (1 Bft)
26.04.2009 02:00 8.3 C 73 % 1010.0 hPa 0.0 l/m 1.9 km/h (1 Bft) O-SO 0.00 h 0 W/m 3.7 C 8.2 C 3.0 km/h (1 Bft)
26.04.2009 03:00 7.8 C 75 % 1009.9 hPa 0.0 l/m 1.6 km/h (1 Bft) O-SO 0.00 h 0 W/m 3.6 C 7.8 C 2.6 km/h (1 Bft)
26.04.2009 04:00 7.1 C 78 % 1009.9 hPa 0.0 l/m 1.8 km/h (1 Bft) O-SO 0.00 h 0 W/m 3.7 C 7.0 C 2.9 km/h (1 Bft)
26.04.2009 05:00 6.7 C 79 % 1009.8 hPa 0.0 l/m 1.1 km/h (1 Bft) O-SO 0.00 h 0 W/m 3.4 C 6.7 C 2.4 km/h (1 Bft)
26.04.2009 06:00 6.5 C 81 % 1009.6 hPa 0.0 l/m 0.6 km/h (0 Bft) O-SO 0.00 h 14 W/m 3.5 C 6.5 C 1.2 km/h (1 Bft)
26.04.2009 07:00 6.7 C 84 % 1009.7 hPa 0.0 l/m 0.2 km/h (0 Bft) O-SO 0.00 h 47 W/m 4.2 C 6.7 C 0.5 km/h (0 Bft)
26.04.2009 08:00 7.6 C 84 % 1010.6 hPa 0.0 l/m 0.1 km/h (0 Bft) O-SO 0.00 h 76 W/m 5.1 C 7.6 C 0.6 km/h (0 Bft)
26.04.2009 09:00 9.2 C 80 % 1010.5 hPa 0.0 l/m 0.1 km/h (0 Bft) O-SO 0.02 h 190 W/m 5.8 C 9.2 C 0.9 km/h (0 Bft)
26.04.2009 10:00 11.8 C 70 % 1009.6 hPa 0.0 l/m 1.3 km/h (1 Bft) NW 0.08 h 256 W/m 6.5 C 11.8 C 2.8 km/h (1 Bft)
26.04.2009 11:00 14.8 C 58 % 1008.6 hPa 0.0 l/m 1.9 km/h (1 Bft) W 0.55 h 478 W/m 6.6 C 14.8 C 4.1 km/h (1 Bft)
26.04.2009 12:00 18.7 C 46 % 1007.4 hPa 0.0 l/m 3.6 km/h (1 Bft) O-SO 1.00 h 773 W/m 6.8 C 18.7 C 6.7 km/h (2 Bft)
26.04.2009 13:00 20.6 C 39 % 1006.3 hPa 0.0 l/m 2.9 km/h (1 Bft) O-SO 1.00 h 746 W/m 6.2 C 20.6 C 5.8 km/h (2 Bft)
26.04.2009 14:00 21.3 C 35 % 1005.4 hPa 0.0 l/m 3.4 km/h (1 Bft) SO 1.00 h 766 W/m 5.2 C 21.3 C 7.1 km/h (2 Bft)
26.04.2009 15:00 22.4 C 34 % 1004.6 hPa 0.0 l/m 3.3 km/h (1 Bft) O-SO 1.00 h 701 W/m 5.7 C 22.4 C 5.9 km/h (2 Bft)
26.04.2009 16:00 22.4 C 32 % 1003.5 hPa 0.0 l/m 2.8 km/h (1 Bft) O-SO 0.18 h 304 W/m 4.8 C 22.4 C 5.7 km/h (1 Bft)
26.04.2009 17:00 21.4 C 36 % 1003.2 hPa 0.0 l/m 1.7 km/h (1 Bft) O 0.00 h 109 W/m 5.5 C 21.4 C 3.6 km/h (1 Bft)
26.04.2009 18:00 20.4 C 39 % 1003.2 hPa 0.0 l/m 5.0 km/h (1 Bft) O-SO 0.00 h 121 W/m 5.9 C 20.4 C 7.5 km/h (2 Bft)
26.04.2009 19:00 19.1 C 40 % 1002.8 hPa 0.0 l/m 3.1 km/h (1 Bft) O-SO 0.00 h 55 W/m 5.0 C 19.1 C 4.8 km/h (1 Bft)
26.04.2009 20:00 17.7 C 43 % 1003.0 hPa 0.0 l/m 1.1 km/h (0 Bft) S 0.00 h 14 W/m 5.1 C 17.7 C 2.6 km/h (1 Bft)
26.04.2009 21:00 16.4 C 47 % 1003.8 hPa 0.0 l/m 4.4 km/h (1 Bft) SO 0.00 h 0 W/m 4.9 C 16.4 C 7.5 km/h (2 Bft)
26.04.2009 22:00 15.3 C 58 % 1004.2 hPa 0.0 l/m 1.8 km/h (1 Bft) W 0.00 h 0 W/m 7.1 C 15.3 C 4.5 km/h (1 Bft)
26.04.2009 23:00 13.8 C 66 % 1004.2 hPa 0.0 l/m 1.4 km/h (1 Bft) W 0.00 h 0 W/m 7.6 C 13.8 C 3.4 km/h (1 Bft)
Min-Datum _ 24.04.09 25.04.09 26.04.09 - 20.04.09 - - - 23.04.09 24.04.09 20.04.09
_ Min-Zeit 06:18 16:12 19:15 - 00:00 - - - 16:18 07:55 00:32
Minimum _ 3.3 C 22 % 1002.6 hPa - 0.0 km/h (0 Bft) - - - -2.1 C 2.5 C 0.0 km/h (0 Bft)
Max-Datum _ 25.04.09 22.04.09 23.04.09 24.04.09 24.04.09 - 20.04.09 21.04.09 21.04.09 25.04.09 23.04.09
_ Max-Zeit 15:26 08:19 23:00 17:41 13:36 - 06:40 13:41 15:58 15:26 18:59
Maximum _ 23.6 C 97 % 1021.0 hPa 0.4 l/m 22.6 km/h
O-SO (4 Bft)
- 0.02 h 1027 W/m 13.5 C 23.7 C 36.5 km/h
N-NO (5 Bft)
Durchschnitt _ 13.8 C 62 % 1015.4 hPa #0.6 l/m 3.2 km/h (1 Bft) O-SO #56:01 h 362 W/m 5.8 C 13.8 C 5.9 km/h (2 Bft)
© Kaiko 2009